Time;durP1;ratioP1;P1;durP2;ratioP2;P2;SDS_P1;SDS_P2;PMS_P1;PMS_P2;Temp;Humidity;BMP_temperature;BMP_pressure;BME280_temperature;BME280_humidity;BME280_pressure;Samples;Min_cycle;Max_cycle;Signal;HPM_P1;HPM_P2
2021/04/20 00:00:45;;;;;;;9.90;7.90;;;8.30;99.90;;;;;;6321175;22;20523;-65
2021/04/20 00:03:10;;;;;;;13.37;8.20;;;8.30;99.90;;;;;;6323127;22;20177;-65
2021/04/20 00:05:36;;;;;;;9.43;8.10;;;8.20;99.90;;;;;;6326218;22;20145;-65
2021/04/20 00:08:02;;;;;;;9.40;7.80;;;8.20;99.90;;;;;;6327502;22;20571;-64
2021/04/20 00:10:27;;;;;;;10.70;8.60;;;8.20;99.90;;;;;;6329506;22;20583;-65
2021/04/20 00:12:55;;;;;;;9.93;8.90;;;8.20;99.90;;;;;;6322900;22;20153;-63
2021/04/20 00:15:25;;;;;;;9.27;8.10;;;8.10;99.90;;;;;;6328238;22;20184;-65
2021/04/20 00:17:55;;;;;;;11.90;9.30;;;8.00;99.90;;;;;;6298649;22;20544;-65
2021/04/20 00:20:21;;;;;;;10.20;8.07;;;8.00;99.90;;;;;;6328810;22;20615;-64
2021/04/20 00:22:47;;;;;;;11.90;8.57;;;8.00;99.90;;;;;;6298947;22;20683;-63
2021/04/20 00:25:13;;;;;;;9.60;8.60;;;8.00;99.90;;;;;;6326577;22;20532;-65
2021/04/20 00:27:39;;;;;;;9.73;8.73;;;7.90;99.90;;;;;;6326406;22;20145;-65
2021/04/20 00:30:09;;;;;;;12.50;8.60;;;7.90;99.90;;;;;;6309348;22;20614;-65
2021/04/20 00:32:35;;;;;;;9.50;8.53;;;7.90;99.90;;;;;;6329301;22;20146;-65
2021/04/20 00:35:02;;;;;;;12.97;9.27;;;7.90;99.90;;;;;;6330556;22;20559;-65
2021/04/20 00:37:27;;;;;;;17.27;9.00;;;7.90;99.90;;;;;;6327586;22;20218;-65
2021/04/20 00:39:53;;;;;;;11.50;10.17;;;7.90;99.90;;;;;;6317246;22;20559;-63
2021/04/20 00:42:19;;;;;;;12.53;8.60;;;7.80;99.90;;;;;;6346874;22;20187;-65
2021/04/20 00:44:44;;;;;;;10.07;8.80;;;7.80;99.90;;;;;;6337037;22;20214;-63
2021/04/20 00:47:12;;;;;;;14.53;9.90;;;7.80;99.90;;;;;;6332055;22;20665;-63
2021/04/20 00:49:40;;;;;;;13.50;10.53;;;7.80;99.90;;;;;;6319658;22;20189;-64
2021/04/20 00:52:06;;;;;;;11.47;9.80;;;7.80;99.90;;;;;;6323164;22;20596;-66
2021/04/20 00:54:32;;;;;;;12.30;9.37;;;7.70;99.90;;;;;;6327369;22;21117;-63
2021/04/20 00:56:58;;;;;;;12.10;9.63;;;7.70;99.90;;;;;;6289754;22;20196;-65
2021/04/20 00:59:23;;;;;;;14.07;9.73;;;7.70;99.90;;;;;;6312391;22;20252;-64
2021/04/20 01:01:50;;;;;;;11.50;9.83;;;7.60;99.90;;;;;;6321037;22;20268;-64
2021/04/20 01:04:19;;;;;;;14.73;9.90;;;7.60;99.90;;;;;;6324287;22;20221;-64
2021/04/20 01:06:46;;;;;;;10.70;9.03;;;7.50;99.90;;;;;;6324857;22;20524;-63
2021/04/20 01:09:13;;;;;;;13.57;9.50;;;7.50;99.90;;;;;;6264108;22;20672;-63
2021/04/20 01:11:41;;;;;;;10.13;9.13;;;7.50;99.90;;;;;;6323399;22;20528;-63
2021/04/20 01:14:07;;;;;;;10.97;9.60;;;7.50;99.90;;;;;;6328691;22;20568;-66
2021/04/20 01:16:36;;;;;;;12.90;10.40;;;7.40;99.90;;;;;;6323071;22;20536;-63
2021/04/20 01:19:04;;;;;;;11.80;9.03;;;7.40;99.90;;;;;;6328550;22;20579;-65
2021/04/20 01:21:32;;;;;;;13.47;10.07;;;7.30;99.90;;;;;;6298157;22;20566;-65
2021/04/20 01:24:03;;;;;;;10.80;9.70;;;7.30;99.90;;;;;;6322373;22;20690;-65
2021/04/20 01:26:32;;;;;;;17.13;10.37;;;7.30;99.90;;;;;;6323896;22;20607;-63
2021/04/20 01:28:59;;;;;;;11.60;10.40;;;7.30;99.90;;;;;;6324285;22;20559;-63
2021/04/20 01:31:27;;;;;;;12.03;9.77;;;7.20;99.90;;;;;;6326232;22;20599;-65
2021/04/20 01:33:53;;;;;;;13.97;10.43;;;7.20;99.90;;;;;;6327391;22;20628;-65
2021/04/20 01:36:23;;;;;;;13.90;10.30;;;7.10;99.90;;;;;;6346833;22;20722;-67
2021/04/20 01:38:50;;;;;;;14.00;9.70;;;7.10;99.90;;;;;;6360667;22;20610;-68
2021/04/20 01:41:17;;;;;;;14.73;9.80;;;7.10;99.90;;;;;;6355289;22;20518;-67
2021/04/20 01:43:44;;;;;;;12.73;9.63;;;7.10;99.90;;;;;;6330481;22;20670;-67
2021/04/20 01:46:10;;;;;;;10.40;9.33;;;7.00;99.90;;;;;;6354119;22;20555;-67
2021/04/20 01:48:38;;;;;;;10.50;9.40;;;7.00;99.90;;;;;;6356939;22;20906;-67
2021/04/20 01:51:04;;;;;;;12.20;10.00;;;7.00;99.90;;;;;;6354807;22;20578;-67
2021/04/20 01:53:30;;;;;;;10.20;8.53;;;7.00;99.90;;;;;;6360067;22;20575;-67
2021/04/20 01:56:07;;;;;;;12.40;9.20;;;6.90;99.90;;;;;;6356913;22;20737;-67
2021/04/20 01:58:35;;;;;;;12.27;9.60;;;6.90;99.90;;;;;;6360732;22;20141;-67
2021/04/20 02:01:06;;;;;;;13.30;9.50;;;6.90;99.90;;;;;;6332707;22;20558;-67
2021/04/20 02:03:33;;;;;;;12.77;9.63;;;6.90;99.90;;;;;;6355239;22;20646;-67
2021/04/20 02:06:00;;;;;;;11.67;9.30;;;6.90;99.90;;;;;;6358088;22;20592;-68
2021/04/20 02:08:28;;;;;;;12.13;9.50;;;6.90;99.90;;;;;;6328675;22;20539;-68
2021/04/20 02:10:57;;;;;;;14.33;10.30;;;6.90;99.90;;;;;;6326475;22;20666;-67
2021/04/20 02:13:23;;;;;;;11.40;9.70;;;6.90;99.90;;;;;;6330535;22;20659;-67
2021/04/20 02:15:48;;;;;;;14.70;9.97;;;6.90;99.90;;;;;;6357903;22;20538;-67
2021/04/20 02:18:15;;;;;;;13.77;10.17;;;6.80;99.90;;;;;;6360334;22;20507;-67
2021/04/20 02:20:42;;;;;;;11.70;9.00;;;6.80;99.90;;;;;;6361527;22;20149;-67
2021/04/20 02:23:08;;;;;;;12.80;9.30;;;6.70;99.90;;;;;;6360385;22;21060;-67
2021/04/20 02:25:34;;;;;;;13.47;10.00;;;6.70;99.90;;;;;;6332899;22;20700;-68
2021/04/20 02:28:00;;;;;;;13.03;9.50;;;6.60;99.90;;;;;;6329788;22;20648;-68
2021/04/20 02:30:27;;;;;;;11.80;9.77;;;6.60;99.90;;;;;;6331577;22;20670;-68
2021/04/20 02:32:54;;;;;;;13.57;9.40;;;6.60;99.90;;;;;;6329324;22;20159;-67
2021/04/20 02:35:20;;;;;;;13.60;10.03;;;6.50;99.90;;;;;;6357898;22;20577;-67
2021/04/20 02:37:47;;;;;;;10.53;8.73;;;6.50;99.90;;;;;;6357206;22;20519;-67
2021/04/20 02:40:22;;;;;;;10.57;9.53;;;6.50;99.90;;;;;;6359176;22;20600;-68
2021/04/20 02:42:49;;;;;;;13.60;9.70;;;6.40;99.90;;;;;;6357502;22;20606;-67
2021/04/20 02:45:18;;;;;;;15.23;9.23;;;6.40;99.90;;;;;;6358741;22;20530;-67
2021/04/20 02:47:44;;;;;;;11.17;9.23;;;6.40;99.90;;;;;;6360329;22;21113;-68
2021/04/20 02:50:15;;;;;;;11.97;9.03;;;6.40;99.90;;;;;;6360854;22;20571;-68
2021/04/20 02:52:45;;;;;;;12.90;9.43;;;6.30;99.90;;;;;;6356500;22;20598;-67
2021/04/20 02:55:12;;;;;;;9.70;8.80;;;6.30;99.90;;;;;;6326005;22;20599;-67
2021/04/20 02:57:42;;;;;;;11.10;8.90;;;6.40;99.90;;;;;;6358758;22;20534;-67
2021/04/20 03:00:12;;;;;;;11.27;8.80;;;6.30;99.90;;;;;;6360291;22;20483;-68
2021/04/20 03:02:40;;;;;;;12.27;10.43;;;6.30;99.90;;;;;;6331366;22;20630;-67
2021/04/20 03:05:09;;;;;;;11.03;9.93;;;6.30;99.90;;;;;;6329812;22;20646;-68
2021/04/20 03:07:35;;;;;;;13.07;9.00;;;6.30;99.90;;;;;;6333678;22;20570;-68
2021/04/20 03:10:03;;;;;;;13.63;10.53;;;6.20;99.90;;;;;;6360867;22;21157;-67
2021/04/20 03:12:28;;;;;;;12.30;9.67;;;6.20;99.90;;;;;;6361498;22;20608;-67
2021/04/20 03:14:54;;;;;;;11.20;9.57;;;6.20;99.90;;;;;;6359352;22;20554;-67
2021/04/20 03:17:20;;;;;;;11.90;9.60;;;6.10;99.90;;;;;;6332888;22;20157;-67
2021/04/20 03:19:47;;;;;;;10.67;9.23;;;6.10;99.90;;;;;;6333215;22;20248;-67
2021/04/20 03:22:13;;;;;;;13.10;9.27;;;6.00;99.90;;;;;;6374625;22;20165;-69
2021/04/20 03:24:51;;;;;;;11.23;9.60;;;6.00;99.90;;;;;;6369735;22;20570;-69
2021/04/20 03:27:17;;;;;;;13.63;10.50;;;5.90;99.90;;;;;;6359598;22;20495;-68
2021/04/20 03:29:42;;;;;;;12.03;9.20;;;5.90;99.90;;;;;;6331993;22;20653;-67
2021/04/20 03:32:10;;;;;;;12.80;9.50;;;5.90;99.90;;;;;;6331024;22;20562;-68
2021/04/20 03:34:59;;;;;;;11.17;9.40;;;5.90;99.90;;;;;;6357075;22;20268;-67
2021/04/20 03:37:35;;;;;;;12.53;9.20;;;5.90;99.90;;;;;;6360865;22;20613;-67
2021/04/20 03:40:03;;;;;;;11.53;9.53;;;5.90;99.90;;;;;;6362004;22;20545;-70
2021/04/20 03:42:34;;;;;;;12.30;9.87;;;5.90;99.90;;;;;;6358152;22;20641;-67
2021/04/20 03:45:06;;;;;;;12.40;10.03;;;5.80;99.90;;;;;;6356393;22;20558;-67
2021/04/20 03:47:38;;;;;;;13.10;10.20;;;5.80;99.90;;;;;;6359585;22;20515;-67
2021/04/20 03:50:11;;;;;;;13.63;10.13;;;5.70;99.90;;;;;;6362190;22;20858;-67
2021/04/20 03:52:43;;;;;;;11.10;9.73;;;5.60;99.90;;;;;;6353627;22;21102;-68
2021/04/20 03:55:12;;;;;;;12.03;10.37;;;5.70;99.90;;;;;;6355774;22;21065;-67
2021/04/20 03:57:39;;;;;;;12.43;10.20;;;5.70;99.90;;;;;;6355733;22;20515;-67
2021/04/20 04:00:07;;;;;;;12.20;10.13;;;5.70;99.90;;;;;;6326840;22;20575;-68
2021/04/20 04:02:38;;;;;;;13.23;10.70;;;5.70;99.90;;;;;;6331750;22;20638;-67
2021/04/20 04:05:06;;;;;;;11.47;10.27;;;5.60;99.90;;;;;;6360716;22;20687;-67
2021/04/20 04:07:33;;;;;;;11.23;10.03;;;5.50;99.90;;;;;;6357121;22;20741;-67
2021/04/20 04:10:04;;;;;;;14.03;10.57;;;5.50;99.90;;;;;;6358992;22;20676;-67
2021/04/20 04:12:34;;;;;;;13.03;10.30;;;5.50;99.90;;;;;;6330888;22;20555;-67
2021/04/20 04:15:00;;;;;;;13.00;9.57;;;5.50;99.90;;;;;;6325734;22;20616;-67
2021/04/20 04:17:27;;;;;;;12.17;9.80;;;5.50;99.90;;;;;;6329524;22;20555;-67
2021/04/20 04:19:54;;;;;;;15.50;9.80;;;5.50;99.90;;;;;;6331184;22;20607;-67
2021/04/20 04:22:25;;;;;;;13.07;10.50;;;5.40;99.90;;;;;;6354713;22;21169;-67
2021/04/20 04:24:55;;;;;;;13.40;9.90;;;5.40;99.90;;;;;;6358076;22;20554;-67
2021/04/20 04:27:23;;;;;;;14.20;10.90;;;5.30;99.90;;;;;;6358209;22;20982;-68
2021/04/20 04:29:52;;;;;;;12.13;9.80;;;5.40;99.90;;;;;;6355197;22;20662;-67
2021/04/20 04:32:20;;;;;;;12.40;10.37;;;5.40;99.90;;;;;;6357241;22;21048;-67
2021/04/20 04:34:47;;;;;;;10.90;9.80;;;5.40;99.90;;;;;;6359671;22;20578;-67
2021/04/20 04:37:15;;;;;;;13.23;10.03;;;5.30;99.90;;;;;;6363247;22;20523;-67
2021/04/20 04:39:42;;;;;;;11.90;9.70;;;5.30;99.90;;;;;;6362541;22;20531;-67
2021/04/20 04:42:10;;;;;;;12.90;9.97;;;5.40;99.90;;;;;;6362815;22;20649;-68
2021/04/20 04:44:36;;;;;;;11.40;9.50;;;5.40;99.90;;;;;;6361288;22;20575;-67
2021/04/20 04:47:04;;;;;;;11.90;10.60;;;5.40;99.90;;;;;;6360785;22;20550;-67
2021/04/20 04:49:32;;;;;;;12.07;10.87;;;5.40;99.90;;;;;;6359767;22;20610;-67
2021/04/20 04:51:59;;;;;;;14.47;11.17;;;5.40;99.90;;;;;;6354094;22;20939;-68
2021/04/20 04:54:26;;;;;;;11.77;10.53;;;5.30;99.90;;;;;;6358501;22;20562;-67
2021/04/20 04:56:55;;;;;;;14.43;10.67;;;5.30;99.90;;;;;;6357319;22;20523;-67
2021/04/20 04:59:22;;;;;;;13.43;11.40;;;5.40;99.90;;;;;;6358884;22;20527;-68
2021/04/20 05:01:48;;;;;;;13.20;11.43;;;5.40;99.90;;;;;;6329760;22;20591;-68
2021/04/20 05:04:17;;;;;;;12.40;10.60;;;5.40;99.90;;;;;;6321254;22;20604;-68
2021/04/20 05:06:49;;;;;;;13.33;11.03;;;5.40;99.90;;;;;;6358698;22;20652;-67
2021/04/20 05:09:18;;;;;;;15.00;11.80;;;5.40;99.90;;;;;;6331118;22;21185;-68
2021/04/20 05:11:47;;;;;;;13.73;11.60;;;5.40;99.90;;;;;;6327486;22;20595;-67
2021/04/20 05:14:16;;;;;;;13.03;11.47;;;5.40;99.90;;;;;;6322832;22;20689;-67
2021/04/20 05:16:46;;;;;;;12.30;10.40;;;5.40;99.90;;;;;;6354086;22;21157;-67
2021/04/20 05:19:12;;;;;;;13.40;11.77;;;5.40;99.90;;;;;;6324047;22;20551;-67
2021/04/20 05:21:39;;;;;;;18.70;11.30;;;5.50;99.90;;;;;;6347786;22;20845;-68
2021/04/20 05:24:05;;;;;;;12.50;11.00;;;5.50;99.90;;;;;;6352609;22;21057;-67
2021/04/20 05:26:31;;;;;;;12.93;11.60;;;5.60;99.90;;;;;;6356469;22;20527;-67
2021/04/20 05:28:58;;;;;;;12.70;11.10;;;5.70;99.90;;;;;;6349052;22;20822;-68
2021/04/20 05:31:25;;;;;;;13.30;10.97;;;5.70;99.90;;;;;;6358445;22;20535;-67
2021/04/20 05:33:58;;;;;;;12.27;10.97;;;5.70;99.90;;;;;;6355164;22;21120;-67
2021/04/20 05:36:24;;;;;;;12.40;11.00;;;5.80;99.90;;;;;;6330115;22;20581;-66
2021/04/20 05:39:03;;;;;;;13.13;11.73;;;5.80;99.90;;;;;;6329163;22;21052;-69
2021/04/20 05:41:31;;;;;;;12.97;10.37;;;5.90;99.90;;;;;;6305560;22;20175;-67
2021/04/20 05:43:59;;;;;;;11.40;10.20;;;5.90;99.90;;;;;;6354085;22;21147;-67
2021/04/20 05:46:25;;;;;;;14.37;11.43;;;6.00;99.90;;;;;;6349753;22;20535;-67
2021/04/20 05:48:52;;;;;;;13.47;11.80;;;6.00;99.90;;;;;;6315906;22;20617;-65
2021/04/20 05:51:19;;;;;;;12.57;10.50;;;6.10;99.90;;;;;;6352982;22;21099;-65
2021/04/20 05:53:46;;;;;;;12.50;10.60;;;6.10;99.90;;;;;;6326784;22;20669;-65
2021/04/20 05:56:15;;;;;;;14.20;10.57;;;6.20;99.90;;;;;;6358339;22;20885;-65
2021/04/20 05:58:41;;;;;;;11.63;10.37;;;6.30;99.90;;;;;;6355312;22;20530;-64
2021/04/20 06:01:07;;;;;;;11.50;10.20;;;6.40;99.90;;;;;;6355426;22;20650;-64
2021/04/20 06:03:39;;;;;;;11.23;10.03;;;6.50;99.90;;;;;;6343221;22;20716;-64
2021/04/20 06:06:07;;;;;;;10.37;9.10;;;6.50;99.90;;;;;;6356985;22;20180;-63
2021/04/20 06:08:35;;;;;;;11.00;8.80;;;6.60;99.90;;;;;;6357797;22;21143;-64
2021/04/20 06:11:03;;;;;;;11.83;8.80;;;6.70;99.90;;;;;;6354632;22;20567;-65
2021/04/20 06:13:28;;;;;;;9.63;7.40;;;6.80;99.90;;;;;;6358700;22;20669;-64
2021/04/20 06:15:54;;;;;;;10.77;8.40;;;6.90;99.90;;;;;;6359765;22;21028;-65
2021/04/20 06:18:21;;;;;;;11.70;7.40;;;7.00;99.90;;;;;;6358963;22;20149;-67
2021/04/20 06:20:48;;;;;;;8.83;7.90;;;7.00;99.90;;;;;;6360939;22;20530;-66
2021/04/20 06:23:14;;;;;;;13.07;8.10;;;7.10;99.90;;;;;;6356501;22;20559;-63
2021/04/20 06:25:40;;;;;;;9.07;7.37;;;7.20;99.90;;;;;;6357788;22;20527;-65
2021/04/20 06:28:08;;;;;;;8.47;7.63;;;7.30;99.90;;;;;;6330850;22;20633;-63
2021/04/20 06:30:34;;;;;;;9.07;7.60;;;7.40;99.90;;;;;;6358144;22;20185;-65
2021/04/20 06:33:00;;;;;;;8.03;7.00;;;7.50;99.90;;;;;;6349908;22;20555;-64
2021/04/20 06:35:27;;;;;;;12.60;7.43;;;7.50;99.90;;;;;;6323852;22;20586;-63
2021/04/20 06:37:54;;;;;;;7.73;6.97;;;7.70;99.90;;;;;;6324652;22;20559;-62
2021/04/20 06:40:32;;;;;;;9.80;6.90;;;7.80;99.90;;;;;;6354779;22;20535;-64
2021/04/20 06:43:12;;;;;;;7.60;6.80;;;7.80;99.90;;;;;;6354565;22;20491;-64
2021/04/20 06:45:43;;;;;;;10.43;6.10;;;7.90;99.90;;;;;;6356873;22;20543;-64
2021/04/20 06:48:31;;;;;;;8.20;6.33;;;8.00;99.90;;;;;;6351369;22;20538;-63
2021/04/20 06:51:03;;;;;;;7.40;6.33;;;8.10;99.90;;;;;;6352374;22;20842;-64
2021/04/20 06:53:40;;;;;;;8.53;6.43;;;8.20;99.90;;;;;;6357091;22;20547;-62
2021/04/20 06:56:26;;;;;;;7.83;5.97;;;8.30;99.90;;;;;;6357128;22;20491;-64
2021/04/20 06:59:02;;;;;;;8.17;6.20;;;8.40;99.90;;;;;;6356319;22;20990;-67
2021/04/20 07:01:55;;;;;;;7.00;5.50;;;8.50;99.90;;;;;;6355310;22;20888;-64
2021/04/20 07:04:45;;;;;;;7.27;6.20;;;8.60;99.90;;;;;;6327354;22;21158;-64
2021/04/20 07:07:31;;;;;;;8.17;6.00;;;8.70;99.90;;;;;;6358953;22;20525;-65
2021/04/20 07:10:09;;;;;;;6.63;5.37;;;8.80;99.90;;;;;;6360844;22;20586;-63
2021/04/20 07:12:35;;;;;;;7.60;5.60;;;8.90;99.90;;;;;;6357070;22;20851;-64
2021/04/20 07:15:02;;;;;;;5.70;5.00;;;9.00;99.90;;;;;;6349984;22;20657;-64
2021/04/20 07:17:53;;;;;;;9.90;5.60;;;9.10;99.90;;;;;;6357229;22;20554;-64
2021/04/20 07:20:43;;;;;;;6.67;5.20;;;9.20;99.90;;;;;;6356252;22;20556;-65
2021/04/20 07:23:39;;;;;;;13.60;5.30;;;9.30;99.90;;;;;;6329516;22;20651;-62
2021/04/20 07:26:15;;;;;;;6.47;5.27;;;9.50;99.90;;;;;;6360882;22;20567;-70
2021/04/20 07:28:54;;;;;;;5.03;4.53;;;9.60;99.90;;;;;;6360147;22;20484;-64
2021/04/20 07:31:47;;;;;;;7.00;4.70;;;9.70;99.90;;;;;;6329763;22;20623;-65
2021/04/20 07:34:20;;;;;;;5.33;4.80;;;9.80;99.90;;;;;;6355653;22;20657;-64
2021/04/20 07:37:21;;;;;;;5.60;4.70;;;9.90;99.90;;;;;;6325515;22;20569;-65
2021/04/20 07:40:08;;;;;;;4.60;4.20;;;10.00;99.90;;;;;;6330624;22;20670;-65
2021/04/20 07:42:56;;;;;;;6.30;4.90;;;10.20;99.90;;;;;;6357521;22;20502;-62
2021/04/20 07:45:35;;;;;;;6.77;4.53;;;10.20;99.90;;;;;;6355990;22;20515;-64
2021/04/20 07:48:10;;;;;;;5.13;4.63;;;10.40;99.90;;;;;;6358817;22;20503;-65
2021/04/20 07:50:45;;;;;;;7.60;5.43;;;10.50;99.90;;;;;;6329742;22;21144;-65
2021/04/20 07:53:39;;;;;;;6.13;5.07;;;10.60;99.90;;;;;;6304379;22;21136;-65
2021/04/20 07:56:23;;;;;;;5.53;4.37;;;10.80;99.90;;;;;;6298399;22;20620;-65
2021/04/20 07:58:51;;;;;;;5.23;4.60;;;10.90;99.90;;;;;;6331330;22;20573;-65
2021/04/20 08:01:32;;;;;;;5.90;4.67;;;11.10;99.90;;;;;;6326539;22;20974;-65
2021/04/20 08:04:14;;;;;;;5.00;4.50;;;11.20;99.90;;;;;;6325347;22;20590;-63
2021/04/20 08:06:44;;;;;;;6.13;4.10;;;11.20;99.90;;;;;;6332040;22;20978;-63
2021/04/20 08:09:15;;;;;;;4.83;4.03;;;11.40;99.90;;;;;;6353586;22;20875;-63
2021/04/20 08:11:48;;;;;;;5.03;4.10;;;11.50;99.90;;;;;;6357430;22;20537;-64
2021/04/20 08:14:18;;;;;;;5.00;3.87;;;11.60;99.90;;;;;;6321689;22;20587;-65
2021/04/20 08:16:52;;;;;;;5.53;4.57;;;11.70;99.90;;;;;;6357219;22;20496;-66
2021/04/20 08:19:30;;;;;;;4.57;4.00;;;11.90;99.90;;;;;;6357684;22;20537;-65
2021/04/20 08:21:57;;;;;;;6.37;3.90;;;12.00;99.90;;;;;;6328658;22;20542;-65
2021/04/20 08:24:33;;;;;;;7.40;4.03;;;12.10;99.90;;;;;;6329718;22;20622;-63
2021/04/20 08:27:07;;;;;;;5.67;4.10;;;12.20;99.90;;;;;;6358366;22;20583;-66
2021/04/20 08:29:33;;;;;;;4.67;3.50;;;12.30;99.90;;;;;;6330753;22;20602;-66
2021/04/20 08:32:10;;;;;;;4.77;3.87;;;12.40;99.90;;;;;;6354710;22;20581;-65
2021/04/20 08:34:43;;;;;;;4.93;3.63;;;12.40;99.90;;;;;;6305531;22;20601;-65
2021/04/20 08:37:09;;;;;;;6.60;3.70;;;12.50;99.90;;;;;;6354636;22;20562;-64
2021/04/20 08:39:59;;;;;;;3.90;3.50;;;12.60;99.90;;;;;;6354649;22;20629;-65
2021/04/20 08:42:38;;;;;;;4.90;3.70;;;12.80;99.90;;;;;;6326321;22;20152;-63
2021/04/20 08:45:28;;;;;;;4.87;3.80;;;13.00;99.90;;;;;;6353863;22;21111;-63
2021/04/20 08:48:12;;;;;;;4.10;3.70;;;13.10;99.90;;;;;;6329783;22;20638;-65
2021/04/20 08:50:44;;;;;;;4.43;3.80;;;13.20;99.90;;;;;;6358078;22;20836;-65
2021/04/20 08:53:29;;;;;;;6.40;4.10;;;13.30;99.90;;;;;;6359339;22;20566;-65
2021/04/20 08:56:18;;;;;;;4.50;3.30;;;13.40;99.90;;;;;;6355117;22;20495;-65
2021/04/20 08:58:56;;;;;;;6.23;3.50;;;13.60;99.90;;;;;;6362765;22;20484;-63
2021/04/20 09:01:41;;;;;;;4.33;3.63;;;13.70;99.90;;;;;;6349670;22;20643;-64
2021/04/20 09:04:36;;;;;;;4.37;3.17;;;13.80;99.90;;;;;;6360671;22;20577;-64
2021/04/20 09:07:14;;;;;;;3.30;3.00;;;14.00;99.90;;;;;;6354772;22;20828;-64
2021/04/20 09:09:42;;;;;;;3.30;2.97;;;14.00;99.90;;;;;;6330194;22;20680;-64
2021/04/20 09:12:11;;;;;;;3.47;3.17;;;14.10;99.90;;;;;;6333185;22;20701;-65
2021/04/20 09:14:44;;;;;;;3.73;3.30;;;14.20;99.90;;;;;;6327873;22;20594;-65
2021/04/20 09:17:17;;;;;;;4.77;3.43;;;14.30;99.90;;;;;;6356044;22;21071;-64
2021/04/20 09:19:48;;;;;;;4.00;3.70;;;14.40;99.90;;;;;;6357493;22;20503;-64
2021/04/20 09:22:18;;;;;;;3.73;3.20;;;14.50;99.90;;;;;;6357354;22;20547;-65
2021/04/20 09:25:07;;;;;;;5.73;3.40;;;14.60;99.90;;;;;;6356965;22;20638;-65
2021/04/20 09:27:48;;;;;;;5.20;3.10;;;14.60;99.90;;;;;;6356036;22;21023;-65
2021/04/20 09:30:17;;;;;;;5.40;3.60;;;14.70;99.90;;;;;;6358366;22;20581;-64
2021/04/20 09:33:17;;;;;;;5.10;3.23;;;14.80;99.90;;;;;;6357803;22;20519;-65
2021/04/20 09:35:43;;;;;;;3.97;3.20;;;14.90;99.90;;;;;;6307764;22;20595;-65
2021/04/20 09:38:12;;;;;;;4.40;3.37;;;15.00;99.90;;;;;;6328727;22;20559;-65
2021/04/20 09:40:40;;;;;;;3.80;2.90;;;15.10;99.90;;;;;;6351281;22;21037;-63
2021/04/20 09:43:29;;;;;;;4.83;3.30;;;15.20;99.90;;;;;;6324776;22;20590;-66
2021/04/20 09:46:09;;;;;;;8.03;3.43;;;15.30;99.90;;;;;;6358046;22;20515;-65
2021/04/20 09:49:01;;;;;;;4.40;3.23;;;15.30;99.90;;;;;;6356399;22;20627;-66
2021/04/20 09:51:47;;;;;;;3.40;3.10;;;15.30;99.90;;;;;;6353078;22;20653;-65
2021/04/20 09:54:20;;;;;;;5.90;3.20;;;15.30;99.90;;;;;;6352180;22;20653;-66
2021/04/20 09:56:51;;;;;;;3.60;3.17;;;15.40;99.90;;;;;;6352892;22;20621;-65
2021/04/20 09:59:21;;;;;;;2.80;2.60;;;15.50;99.90;;;;;;6327826;22;20547;-64
2021/04/20 10:02:04;;;;;;;4.50;3.27;;;15.60;99.90;;;;;;6325616;22;20546;-66
2021/04/20 10:04:41;;;;;;;4.77;3.23;;;15.60;99.90;;;;;;6352559;22;20624;-65
2021/04/20 10:07:29;;;;;;;4.50;3.00;;;15.70;99.90;;;;;;6355701;22;20572;-65
2021/04/20 10:10:19;;;;;;;5.13;3.53;;;15.70;99.90;;;;;;6357246;22;20559;-64
2021/04/20 10:13:03;;;;;;;5.00;3.23;;;15.80;99.90;;;;;;6326774;22;20712;-66
2021/04/20 10:16:10;;;;;;;3.93;3.50;;;15.90;99.90;;;;;;6329851;22;20614;-66
2021/04/20 10:19:13;;;;;;;4.40;2.97;;;16.00;99.90;;;;;;6356694;22;20496;-66
2021/04/20 10:21:46;;;;;;;4.20;3.20;;;16.00;99.90;;;;;;6318824;22;21197;-65
2021/04/20 10:24:23;;;;;;;4.40;3.70;;;16.10;99.90;;;;;;6324458;22;20636;-66
2021/04/20 10:26:58;;;;;;;3.50;3.20;;;16.20;99.90;;;;;;6327156;22;20543;-66
2021/04/20 10:29:42;;;;;;;3.23;3.03;;;16.20;99.90;;;;;;6328137;22;20707;-65
2021/04/20 10:32:16;;;;;;;4.30;3.20;;;16.30;99.90;;;;;;6357484;22;20519;-65
2021/04/20 10:34:48;;;;;;;3.67;3.20;;;16.30;99.90;;;;;;6329374;22;20681;-65
2021/04/20 10:37:15;;;;;;;4.30;3.27;;;16.40;99.90;;;;;;6358368;22;20544;-67
2021/04/20 10:39:46;;;;;;;5.43;3.40;;;16.50;99.90;;;;;;6358838;22;20927;-67
2021/04/20 10:42:13;;;;;;;4.57;3.37;;;16.60;99.90;;;;;;6356875;22;20719;-66
2021/04/20 10:44:40;;;;;;;3.50;3.20;;;16.70;99.90;;;;;;6330410;22;20601;-66
2021/04/20 10:47:10;;;;;;;3.73;3.43;;;16.70;97.90;;;;;;6359541;22;20538;-65
2021/04/20 10:49:35;;;;;;;3.70;3.40;;;16.80;97.70;;;;;;6358866;22;20688;-66
2021/04/20 10:52:09;;;;;;;5.13;3.43;;;16.90;96.30;;;;;;6356831;22;21016;-64
2021/04/20 10:54:41;;;;;;;3.43;3.13;;;16.90;96.60;;;;;;6357666;22;20169;-66
2021/04/20 10:57:07;;;;;;;3.70;3.17;;;17.00;96.10;;;;;;6330006;22;20582;-66
2021/04/20 10:59:35;;;;;;;3.57;3.23;;;17.00;94.90;;;;;;6321763;22;20840;-66
2021/04/20 11:02:04;;;;;;;3.10;2.80;;;17.00;92.40;;;;;;6324248;22;20566;-65
2021/04/20 11:04:33;;;;;;;3.73;3.30;;;17.10;92.80;;;;;;6298128;22;20610;-65
2021/04/20 11:07:20;;;;;;;3.43;3.13;;;17.10;95.30;;;;;;6361295;22;20572;-65
2021/04/20 11:09:48;;;;;;;4.00;3.57;;;17.30;93.90;;;;;;6360519;22;20605;-66
2021/04/20 11:12:18;;;;;;;3.50;3.20;;;17.30;94.90;;;;;;6358577;22;20519;-64
2021/04/20 11:14:46;;;;;;;5.00;3.10;;;17.40;94.50;;;;;;6353448;22;20577;-67
2021/04/20 11:17:18;;;;;;;3.23;3.00;;;17.50;95.60;;;;;;6331950;22;20543;-66
2021/04/20 11:19:52;;;;;;;3.50;3.10;;;17.60;94.30;;;;;;6359881;22;21253;-66
2021/04/20 11:22:20;;;;;;;4.43;2.97;;;17.70;93.00;;;;;;6359919;22;20504;-66
2021/04/20 11:24:55;;;;;;;3.50;2.83;;;17.80;91.90;;;;;;6360364;22;20570;-66
2021/04/20 11:27:24;;;;;;;3.77;3.40;;;17.90;91.80;;;;;;6333532;22;20646;-66
2021/04/20 11:30:08;;;;;;;3.77;3.00;;;17.90;91.50;;;;;;6360514;22;20981;-66
2021/04/20 11:32:38;;;;;;;3.67;3.37;;;18.00;90.50;;;;;;6360810;22;20483;-66
2021/04/20 11:35:13;;;;;;;3.27;2.97;;;18.10;90.90;;;;;;6362754;22;20807;-64
2021/04/20 11:37:40;;;;;;;4.40;3.10;;;18.20;91.30;;;;;;6336224;22;20620;-66
2021/04/20 11:40:15;;;;;;;3.50;2.60;;;18.20;90.10;;;;;;6364190;22;20549;-66
2021/04/20 11:42:42;;;;;;;3.40;3.10;;;18.20;88.50;;;;;;6360541;22;20491;-65
2021/04/20 11:45:19;;;;;;;5.37;3.30;;;18.30;91.90;;;;;;6358988;22;20569;-66
2021/04/20 11:48:01;;;;;;;3.80;3.20;;;18.40;88.10;;;;;;6307452;22;20841;-66
2021/04/20 11:50:32;;;;;;;3.57;2.77;;;18.60;90.00;;;;;;6328559;22;20697;-68
2021/04/20 11:53:03;;;;;;;3.23;2.93;;;18.70;90.20;;;;;;6333000;22;20491;-68
2021/04/20 11:55:38;;;;;;;4.00;2.90;;;18.80;87.80;;;;;;6335507;22;20613;-68
2021/04/20 11:58:10;;;;;;;3.37;3.07;;;19.00;84.10;;;;;;6368000;22;20495;-69
2021/04/20 12:00:38;;;;;;;2.90;2.70;;;19.10;84.90;;;;;;6353894;22;20555;-68
2021/04/20 12:03:10;;;;;;;4.20;2.87;;;19.20;87.70;;;;;;6374545;22;20575;-68
2021/04/20 12:05:37;;;;;;;3.43;3.13;;;19.30;86.80;;;;;;6338621;22;20725;-68
2021/04/20 12:08:05;;;;;;;4.10;2.90;;;19.40;84.50;;;;;;6333249;22;20646;-68
2021/04/20 12:10:32;;;;;;;3.07;2.83;;;19.50;84.60;;;;;;6363801;22;20697;-69
2021/04/20 12:13:03;;;;;;;3.30;2.90;;;19.60;84.60;;;;;;6360887;22;20518;-69
2021/04/20 12:15:30;;;;;;;3.40;3.10;;;19.70;84.90;;;;;;6363653;22;20590;-67
2021/04/20 12:17:57;;;;;;;3.73;3.10;;;19.90;81.40;;;;;;6362964;22;20912;-67
2021/04/20 12:20:26;;;;;;;2.80;2.50;;;20.00;83.40;;;;;;6329485;22;20553;-67
2021/04/20 12:22:56;;;;;;;3.80;2.63;;;20.20;80.40;;;;;;6360476;22;20538;-67
2021/04/20 12:25:24;;;;;;;2.33;2.13;;;20.30;82.00;;;;;;6355665;22;20500;-67
2021/04/20 12:27:58;;;;;;;3.03;2.73;;;20.50;83.40;;;;;;6325358;22;20546;-67
2021/04/20 12:30:25;;;;;;;2.80;2.60;;;20.60;79.80;;;;;;6328824;22;21187;-67
2021/04/20 12:32:52;;;;;;;3.93;2.77;;;20.60;80.70;;;;;;6357606;22;20539;-67
2021/04/20 12:35:26;;;;;;;3.60;2.60;;;20.80;79.30;;;;;;6359676;22;20631;-67
2021/04/20 12:37:57;;;;;;;3.07;2.80;;;20.90;77.50;;;;;;6331697;22;20550;-67
2021/04/20 12:40:23;;;;;;;3.50;2.73;;;21.00;75.90;;;;;;6359398;22;21011;-67
2021/04/20 12:42:54;;;;;;;3.27;2.83;;;21.10;74.90;;;;;;6351927;22;20587;-67
2021/04/20 12:45:21;;;;;;;6.40;2.53;;;21.20;75.10;;;;;;6354313;22;20518;-68
2021/04/20 12:47:47;;;;;;;3.67;2.50;;;21.30;77.90;;;;;;6352686;22;21194;-69
2021/04/20 12:50:18;;;;;;;3.07;2.40;;;21.50;78.20;;;;;;6350813;22;20583;-68
2021/04/20 12:52:45;;;;;;;2.90;2.60;;;21.70;76.30;;;;;;6333720;22;20550;-69
2021/04/20 12:55:22;;;;;;;2.80;2.50;;;21.90;73.20;;;;;;6356831;22;20863;-68
2021/04/20 12:57:50;;;;;;;3.00;2.60;;;22.00;74.90;;;;;;6326235;22;21043;-69
2021/04/20 13:00:19;;;;;;;3.03;2.70;;;22.20;73.90;;;;;;6354045;22;21207;-69
2021/04/20 13:02:47;;;;;;;2.90;2.57;;;22.30;73.00;;;;;;6326610;22;21015;-69
2021/04/20 13:05:14;;;;;;;2.43;2.23;;;22.40;71.60;;;;;;6355716;22;20537;-69
2021/04/20 13:07:41;;;;;;;5.43;2.83;;;22.40;70.00;;;;;;6322442;22;20629;-69